This is the latest recevied weather packets stored in our database for station/object ED4YAZ-13. If no packets are shown the sender has not sent any weather packets the latest 10 day(s).
| Time | Temp. | Humidity | Pressure | Rain* | Wind** | Luminosity | Snow |
|---|---|---|---|---|---|---|---|
| 1777731050 | 21.11° C | 53% | 1014.5 hPa | - | - | - | - |
| 1777730450 | 20.56° C | 54% | 1014.9 hPa | - | - | - | - |
| 1777729842 | 21.11° C | 53% | 1015 hPa | - | - | - | - |
| 1777729842 | 21.11° C | 53% | 1015 hPa | - | - | - | - |
| 1777728740 | 22.22° C | 51% | 1014.5 hPa | - | - | - | - |
| 1777728740 | 22.22° C | 51% | 1014.5 hPa | - | - | - | - |
| 1777728134 | 21.11° C | 53% | 1015.2 hPa | - | - | - | - |
| 1777728134 | 21.11° C | 53% | 1015.2 hPa | - | - | - | - |
| 1777727534 | 21.11° C | 56% | 1015.5 hPa | - | - | - | - |
| 1777726928 | 20.56° C | 55% | 1015.8 hPa | - | - | - | - |
| 1777726928 | 20.56° C | 55% | 1015.8 hPa | - | - | - | - |
| 1777726328 | 20° C | 55% | 1015.7 hPa | - | - | - | - |
| 1777725728 | 21.11° C | 55% | 1015.3 hPa | - | - | - | - |
| 1777725125 | 20.56° C | 56% | 1015.7 hPa | - | - | - | - |
| 1777725117 | 20.56° C | 56% | 1015.7 hPa | - | - | - | - |
| 1777724526 | 19.44° C | 58% | 1016.4 hPa | - | - | - | - |
| 1777724517 | 19.44° C | 58% | 1016.4 hPa | - | - | - | - |
| 1777723917 | 19.44° C | 60% | 1016.7 hPa | - | - | - | - |
| 1777723304 | 17.78° C | 63% | 1017.7 hPa | - | - | - | - |
| 1777722704 | 18.33° C | 62% | 1017.1 hPa | - | - | - | - |
| 1777722104 | 18.33° C | 63% | 1017.5 hPa | - | - | - | - |
| 1777721503 | 17.78° C | 62% | 1017.6 hPa | - | - | - | - |
| 1777720898 | 16.11° C | 67% | 1018.8 hPa | - | - | - | - |
| 1777720285 | 16.67° C | 64% | 1018.7 hPa | - | - | - | - |
| 1777719679 | 18.89° C | 60% | 1017.3 hPa | - | - | - | - |
* Rain since midnight (hover to see other rain measurements)
** Current wind speed in m/s (hover to see current wind gust speed)